Airport View

Enter AWOS ICAO identifier for current METAR.

ex. KFNL

KPEO 191753Z AUTO 00000KT 10SM CLR 26/17 A2979 RMK AO2 SLP080 T02560167 10261 20172 56018

19 Jun 2019 18:54

Frequency: 121.175

Phone: 315-536-4102

Other Area AWOS: KITH - KDSV - KELM - K6B9

TAF KITH 191742Z 1918/2018 VRB04KT P6SM BKN050 TEMPO 1920/1924 SHRA FM200500 VRB03KT 5SM BR BKN040 FM200700 VRB03KT 4SM BR BKN015 FM200900 VRB03KT 2SM -SHRA BR BKN006 OVC012